Time;durP1;ratioP1;P1;durP2;ratioP2;P2;SDS_P1;SDS_P2;PMS_P1;PMS_P2;Temp;Humidity;BMP_temperature;BMP_pressure;BME280_temperature;BME280_humidity;BME280_pressure;Samples;Min_cycle;Max_cycle;Signal;HPM_P1;HPM_P2
2023/09/03 08:15:14;;;;;;;6.10;3.50;;;;;;;24.00;100.00;101414.46;104418;1279;599611;-75
2023/09/03 08:17:49;;;;;;;5.30;3.90;;;;;;;24.22;100.00;101412.66;107017;1247;58978;-77
2023/09/03 08:20:19;;;;;;;6.80;4.00;;;;;;;24.34;100.00;101412.39;107096;1249;60375;-75
2023/09/03 08:22:48;;;;;;;6.20;4.10;;;;;;;24.64;100.00;101412.14;107004;1249;61812;-74
2023/09/03 08:25:19;;;;;;;7.60;4.90;;;;;;;25.00;100.00;101414.48;106925;1251;60957;-74
2023/09/03 08:27:48;;;;;;;6.60;3.40;;;;;;;25.40;100.00;101415.37;106806;1258;226860;-74
2023/09/03 08:30:17;;;;;;;4.50;3.20;;;;;;;25.52;98.16;101416.63;107108;1248;74086;-75
2023/09/03 08:32:46;;;;;;;4.10;3.00;;;;;;;25.37;95.85;101415.50;107060;1248;59409;-75
2023/09/03 08:35:15;;;;;;;3.30;2.80;;;;;;;25.44;94.20;101416.30;107140;1248;58977;-75
2023/09/03 08:37:44;;;;;;;4.10;2.80;;;;;;;25.20;92.56;101410.83;107102;1258;60468;-75
2023/09/03 08:40:13;;;;;;;4.70;2.70;;;;;;;25.31;93.21;101406.26;106936;1248;72132;-72
2023/09/03 08:42:46;;;;;;;5.20;3.10;;;;;;;25.29;92.86;101406.48;106916;1248;60364;-70
2023/09/03 08:45:19;;;;;;;3.30;2.40;;;;;;;25.20;93.51;101404.70;106722;1249;66019;-71
2023/09/03 08:47:48;;;;;;;3.90;2.70;;;;;;;25.12;93.73;101402.36;106787;1246;58992;-72
2023/09/03 08:50:17;;;;;;;5.00;3.30;;;;;;;24.83;95.70;101401.31;107140;1247;61114;-72
2023/09/03 08:52:46;;;;;;;6.00;2.90;;;;;;;24.65;97.47;101400.70;106816;1248;62680;-76
2023/09/03 08:55:15;;;;;;;6.90;3.70;;;;;;;24.80;97.66;101396.60;106652;1247;62825;-70
2023/09/03 08:57:44;;;;;;;5.30;3.40;;;;;;;24.88;96.90;101394.23;107001;1248;60363;-72
2023/09/03 09:00:16;;;;;;;5.30;3.20;;;;;;;24.90;97.10;101395.56;106706;1248;63228;-72
2023/09/03 09:02:48;;;;;;;5.40;3.20;;;;;;;25.14;96.74;101395.64;106790;1248;59017;-71
2023/09/03 09:05:18;;;;;;;5.50;3.50;;;;;;;25.19;97.52;101390.05;106822;1248;58969;-69
2023/09/03 09:07:48;;;;;;;7.10;3.60;;;;;;;25.25;97.74;101391.84;106744;1257;63987;-69
2023/09/03 09:10:23;;;;;;;7.20;4.00;;;;;;;25.28;97.15;101388.21;106854;1244;71674;-71
2023/09/03 09:13:02;;;;;;;5.50;3.60;;;;;;;25.33;97.93;101381.19;106883;1248;70709;-69
2023/09/03 09:15:31;;;;;;;6.10;3.80;;;;;;;25.26;97.49;101379.93;106865;1248;74120;-70
2023/09/03 09:18:00;;;;;;;7.00;3.90;;;;;;;25.49;97.58;101376.31;106723;1248;59078;-70
2023/09/03 09:20:34;;;;;;;7.60;3.90;;;;;;;25.50;98.35;101374.27;106730;1250;58935;-71
2023/09/03 09:23:04;;;;;;;6.70;3.60;;;;;;;25.60;98.74;101373.32;106815;1248;61487;-70
2023/09/03 09:25:34;;;;;;;6.40;3.90;;;;;;;25.62;95.87;101376.09;106864;1247;72258;-71
2023/09/03 09:28:13;;;;;;;5.80;3.60;;;;;;;25.53;97.08;101379.27;106906;1248;60621;-71
2023/09/03 09:30:58;;;;;;;5.60;3.70;;;;;;;25.64;96.77;101373.02;106833;1248;62568;-70
2023/09/03 09:33:27;;;;;;;6.50;3.40;;;;;;;25.78;94.03;101366.77;106878;1248;61126;-71
2023/09/03 09:36:11;;;;;;;5.00;3.20;;;;;;;25.79;92.49;101366.33;106860;1248;59045;-70
2023/09/03 09:38:39;;;;;;;;;;;;;;;25.76;93.43;101352.55;106875;1251;72506;-71
2023/09/03 09:41:29;;;;;;;4.20;3.10;;;;;;;25.80;93.01;101346.54;106929;1247;71967;-70
2023/09/03 09:43:58;;;;;;;4.80;3.60;;;;;;;25.83;93.69;101346.23;107019;1256;69938;-75
2023/09/03 09:46:33;;;;;;;5.20;3.90;;;;;;;25.85;95.53;101349.50;107032;1248;65735;-70
2023/09/03 09:49:02;;;;;;;6.10;4.20;;;;;;;25.88;95.21;101351.95;107063;1247;61443;-78
2023/09/03 09:51:31;;;;;;;6.30;4.00;;;;;;;25.76;94.79;101341.69;107217;1248;59579;-81
2023/09/03 09:54:03;;;;;;;6.50;3.70;;;;;;;25.76;93.98;101342.74;107038;1251;62174;-76
2023/09/03 09:56:37;;;;;;;6.20;3.50;;;;;;;25.62;94.58;101348.27;107059;1249;72072;-77
2023/09/03 09:59:09;;;;;;;6.20;3.40;;;;;;;25.79;93.98;101341.83;107134;1259;69956;-76
2023/09/03 10:01:46;;;;;;;4.70;3.40;;;;;;;25.92;92.81;101335.20;107028;1251;74205;-80
2023/09/03 10:04:26;;;;;;;5.30;3.60;;;;;;;25.78;93.28;101330.95;107264;1255;59602;-76
2023/09/03 10:06:56;;;;;;;4.80;3.70;;;;;;;25.82;92.81;101329.75;107280;1245;57516;-78
2023/09/03 10:09:24;;;;;;;6.90;3.60;;;;;;;25.82;92.91;101328.30;107226;1254;72722;-75
2023/09/03 10:11:53;;;;;;;5.20;3.20;;;;;;;25.93;91.96;101322.90;107307;1248;61940;-83
2023/09/03 10:14:22;;;;;;;4.10;2.70;;;;;;;25.99;91.86;101311.12;107404;1245;59138;-76
2023/09/03 10:16:55;;;;;;;5.00;2.80;;;;;;;26.03;92.02;101307.02;107300;1248;62495;-77
2023/09/03 10:19:27;;;;;;;4.70;2.70;;;;;;;26.15;89.82;101307.08;107410;1244;58975;-78
2023/09/03 10:22:01;;;;;;;4.30;2.60;;;;;;;26.28;88.12;101299.84;107348;1245;58979;-77
2023/09/03 10:24:31;;;;;;;3.60;2.30;;;;;;;26.36;86.25;101297.70;107177;1248;61369;-72
2023/09/03 10:27:06;;;;;;;4.00;2.40;;;;;;;26.37;85.45;101296.68;107129;1245;72153;-72
2023/09/03 10:29:36;;;;;;;4.00;2.20;;;;;;;26.71;85.28;101293.00;107091;1248;70129;-71
2023/09/03 10:32:07;;;;;;;4.20;2.30;;;;;;;26.81;81.46;101283.05;107272;1244;75798;-72
2023/09/03 10:34:37;;;;;;;3.70;2.00;;;;;;;26.74;79.16;101280.02;107112;1251;58356;-69
2023/09/03 10:37:10;;;;;;;2.20;1.80;;;;;;;27.08;80.13;101278.51;109239;1241;61256;-72
2023/09/03 10:39:43;;;;;;;2.70;1.80;;;;;;;27.09;78.18;101274.99;107177;1245;63553;-70
2023/09/03 10:42:29;;;;;;;2.80;1.90;;;;;;;27.58;77.33;101271.09;107270;1244;72225;-70
2023/09/03 10:45:00;;;;;;;2.90;2.30;;;;;;;27.77;74.79;101274.59;107205;1241;71055;-69
2023/09/03 10:47:29;;;;;;;3.60;1.90;;;;;;;27.96;73.76;101267.68;107204;1244;63372;-70
2023/09/03 10:49:58;;;;;;;2.90;2.00;;;;;;;28.12;72.77;101266.51;107391;1240;57995;-71
2023/09/03 10:52:28;;;;;;;4.40;2.10;;;;;;;28.28;72.77;101261.80;107491;1241;58887;-70
2023/09/03 10:55:21;;;;;;;3.10;2.20;;;;;;;28.68;69.93;101252.61;107459;1241;71674;-70
2023/09/03 10:58:10;;;;;;;3.20;2.20;;;;;;;28.49;71.32;101253.30;107477;1243;72886;-76
2023/09/03 11:01:22;;;;;;;3.40;2.30;;;;;;;28.99;71.54;101254.48;107514;1245;59679;-70
2023/09/03 11:03:53;;;;;;;3.50;2.30;;;;;;;29.52;70.78;101250.95;107366;1248;63914;-72
2023/09/03 11:06:24;;;;;;;4.20;2.30;;;;;;;29.27;70.27;101247.67;107261;1241;59131;-71
2023/09/03 11:08:58;;;;;;;3.40;2.50;;;;;;;29.22;70.42;101242.70;107404;1240;61113;-73
2023/09/03 11:11:31;;;;;;;4.60;2.40;;;;;;;29.26;70.45;101238.68;107405;1241;73548;-73
2023/09/03 11:14:00;;;;;;;4.30;2.60;;;;;;;29.19;69.79;101236.57;107427;1241;61863;-72
2023/09/03 11:16:35;;;;;;;3.20;2.10;;;;;;;29.37;68.79;101236.73;107533;1248;70328;-70
2023/09/03 11:19:07;;;;;;;3.00;2.10;;;;;;;29.57;66.78;101231.98;107238;1244;74257;-72
2023/09/03 11:21:37;;;;;;;;;;;;;;;29.05;67.25;101225.20;107476;1242;59372;-72
2023/09/03 11:24:18;;;;;;;3.20;2.20;;;;;;;28.88;68.59;101218.74;107368;1242;59087;-71
2023/09/03 11:27:03;;;;;;;3.60;2.30;;;;;;;29.41;66.75;101220.73;107434;1242;61343;-71
2023/09/03 11:29:32;;;;;;;3.20;2.00;;;;;;;29.48;64.98;101215.63;107356;1242;63250;-72
2023/09/03 11:32:04;;;;;;;3.70;2.00;;;;;;;29.39;64.50;101213.61;107359;1241;69389;-70
2023/09/03 11:34:39;;;;;;;3.50;2.00;;;;;;;29.50;63.53;101212.96;107416;1242;63696;-70
2023/09/03 11:37:11;;;;;;;3.50;2.40;;;;;;;29.29;65.34;101214.61;107608;1242;59159;-70
2023/09/03 11:39:40;;;;;;;;;;;;;;;29.75;63.65;101212.59;107473;1249;57419;-70
2023/09/03 11:42:19;;;;;;;6.60;3.70;;;;;;;29.99;61.35;101200.11;108212;1241;70811;-70
2023/09/03 11:44:52;;;;;;;4.40;2.60;;;;;;;30.13;60.45;101195.96;107674;1242;71589;-70
2023/09/03 11:47:22;;;;;;;2.80;1.90;;;;;;;30.47;58.18;101194.00;107593;1242;60306;-70
2023/09/03 11:49:51;;;;;;;2.90;2.20;;;;;;;30.21;58.45;101183.80;107583;1241;63301;-69
2023/09/03 11:52:20;;;;;;;2.90;1.90;;;;;;;30.64;56.76;101175.95;107445;1242;59008;-70
2023/09/03 11:54:49;;;;;;;5.60;2.00;;;;;;;30.92;55.70;101167.98;107384;1242;59052;-70
2023/09/03 11:57:19;;;;;;;2.30;1.70;;;;;;;30.96;55.14;101163.19;107325;1252;62953;-71
2023/09/03 11:59:49;;;;;;;2.70;1.80;;;;;;;31.34;53.03;101156.77;107256;1244;71763;-71
2023/09/03 12:02:18;;;;;;;3.10;2.00;;;;;;;31.49;52.98;101155.02;107259;1241;72204;-70
2023/09/03 12:04:47;;;;;;;3.60;2.00;;;;;;;31.83;51.89;101155.23;107374;1242;64507;-70
2023/09/03 12:07:17;;;;;;;2.80;2.10;;;;;;;31.84;52.23;101149.92;107449;1242;59051;-70
2023/09/03 12:09:51;;;;;;;3.50;2.00;;;;;;;31.64;52.14;101145.20;107444;1241;59152;-69
2023/09/03 12:12:20;;;;;;;3.50;2.00;;;;;;;31.87;50.96;101148.33;107491;1241;62120;-69
2023/09/03 12:14:49;;;;;;;3.00;1.70;;;;;;;32.21;50.29;101151.98;107354;1242;61042;-70
2023/09/03 12:17:24;;;;;;;1.90;1.40;;;;;;;32.11;48.35;101148.84;107132;1245;59390;-69
2023/09/03 12:19:55;;;;;;;2.60;1.70;;;;;;;32.66;46.63;101145.40;107391;1243;73732;-69
2023/09/03 12:22:24;;;;;;;2.70;1.70;;;;;;;32.81;46.99;101140.96;107419;1241;61019;-69
2023/09/03 12:24:54;;;;;;;2.40;1.70;;;;;;;32.71;45.97;101131.52;107254;1243;61813;-69
2023/09/03 12:27:23;;;;;;;3.10;1.90;;;;;;;31.91;49.12;101121.33;107330;1242;72288;-69
2023/09/03 12:29:56;;;;;;;3.00;1.70;;;;;;;31.74;50.34;101125.95;107355;1242;72751;-69
2023/09/03 12:32:36;;;;;;;2.50;1.50;;;;;;;32.35;49.15;101130.02;107341;1252;59403;-69
2023/09/03 12:35:18;;;;;;;4.00;1.60;;;;;;;31.94;49.11;101127.72;107479;1242;62455;-70
2023/09/03 12:37:48;;;;;;;2.30;1.50;;;;;;;31.90;48.71;101125.66;107265;1245;58918;-69
2023/09/03 12:40:17;;;;;;;2.40;1.70;;;;;;;32.04;47.64;101123.36;107549;1242;60959;-69
2023/09/03 12:42:46;;;;;;;2.40;1.50;;;;;;;32.90;46.60;101123.33;107534;1240;73149;-68
2023/09/03 12:45:16;;;;;;;2.00;1.50;;;;;;;33.50;45.17;101128.46;107637;1242;71465;-72
2023/09/03 12:47:45;;;;;;;3.30;1.90;;;;;;;33.71;44.61;101133.47;108771;1239;71060;-72
2023/09/03 12:50:14;;;;;;;2.70;1.80;;;;;;;33.35;44.56;101133.90;107605;1252;73589;-74
2023/09/03 12:52:43;;;;;;;2.50;1.80;;;;;;;33.60;45.61;101138.84;107697;1242;61342;-73
2023/09/03 12:55:12;;;;;;;3.00;1.90;;;;;;;33.64;46.21;101132.89;107678;1241;62642;-71
2023/09/03 12:57:41;;;;;;;3.10;2.00;;;;;;;32.37;49.94;101132.58;107635;1241;74581;-73
2023/09/03 13:00:12;;;;;;;3.50;2.00;;;;;;;31.47;53.63;101129.30;107583;1241;72087;-74
2023/09/03 13:02:40;;;;;;;2.40;1.90;;;;;;;31.19;54.98;101124.88;107657;1251;69639;-76
2023/09/03 13:05:09;;;;;;;4.70;2.50;;;;;;;31.58;53.83;101124.02;107666;1244;73982;-75
2023/09/03 13:07:38;;;;;;;2.90;2.10;;;;;;;31.69;52.40;101120.94;107618;1245;57379;-73
2023/09/03 13:10:08;;;;;;;2.40;1.80;;;;;;;32.39;50.55;101117.82;107513;1248;59084;-69
2023/09/03 13:12:36;;;;;;;4.20;2.90;;;;;;;32.29;50.88;101111.39;107556;1251;64399;-68
2023/09/03 13:15:06;;;;;;;6.40;2.00;;;;;;;32.70;50.61;101102.58;107633;1242;72659;-68
2023/09/03 13:17:35;;;;;;;3.60;2.00;;;;;;;33.45;48.43;101095.90;107503;1248;59760;-69
2023/09/03 13:20:05;;;;;;;3.40;2.20;;;;;;;33.33;49.40;101091.44;107544;1252;62555;-69
2023/09/03 13:22:34;;;;;;;2.90;2.10;;;;;;;33.45;49.76;101082.98;107553;1242;58790;-69
2023/09/03 13:25:04;;;;;;;3.50;2.20;;;;;;;33.48;49.55;101070.63;107459;1245;59008;-68
2023/09/03 13:27:33;;;;;;;3.10;2.30;;;;;;;33.67;48.56;101061.98;107534;1241;72612;-69
2023/09/03 13:30:02;;;;;;;4.80;2.00;;;;;;;32.76;50.18;101056.67;107484;1242;72836;-68
2023/09/03 13:32:31;;;;;;;4.10;2.30;;;;;;;31.69;54.07;101055.80;107629;1241;60544;-69
2023/09/03 13:35:00;;;;;;;4.00;2.30;;;;;;;31.18;56.34;101058.30;107536;1242;63132;-69
2023/09/03 13:37:29;;;;;;;3.50;2.20;;;;;;;31.07;56.59;101061.78;107643;1243;59117;-68
2023/09/03 13:39:58;;;;;;;4.60;2.50;;;;;;;30.24;59.35;101057.84;107564;1242;57392;-69
2023/09/03 13:42:27;;;;;;;3.70;2.10;;;;;;;29.77;61.12;101070.67;107626;1241;62378;-68
2023/09/03 13:44:58;;;;;;;3.50;2.60;;;;;;;29.36;62.41;101072.06;107636;1241;60755;-67
2023/09/03 13:47:27;;;;;;;4.20;2.60;;;;;;;28.68;66.63;101069.69;107555;1242;60053;-69
2023/09/03 13:49:56;;;;;;;4.00;2.60;;;;;;;28.20;69.37;101070.08;107597;1242;63200;-69
2023/09/03 13:52:35;;;;;;;4.00;2.70;;;;;;;27.75;71.06;101064.78;107606;1245;59057;-69
2023/09/03 13:55:06;;;;;;;7.80;4.30;;;;;;;27.45;72.54;101061.21;107619;1248;61368;-70
2023/09/03 13:57:36;;;;;;;5.10;3.90;;;;;;;27.41;73.03;101060.08;107620;1241;63349;-68
2023/09/03 14:00:06;;;;;;;7.00;3.30;;;;;;;27.18;73.61;101052.48;109765;1242;61961;-68
2023/09/03 14:02:34;;;;;;;4.70;2.90;;;;;;;26.99;73.95;101054.02;109234;1241;71118;-69
2023/09/03 14:05:04;;;;;;;4.10;3.10;;;;;;;26.69;76.64;101052.98;107528;1241;64880;-70
2023/09/03 14:07:34;;;;;;;4.90;2.70;;;;;;;26.33;79.60;101053.51;107533;1243;61067;-70
2023/09/03 14:10:03;;;;;;;4.20;2.80;;;;;;;26.25;79.65;101061.73;107577;1242;58956;-67
2023/09/03 14:12:32;;;;;;;5.80;3.20;;;;;;;26.11;80.80;101065.39;107644;1243;63718;-68
2023/09/03 14:15:02;;;;;;;3.60;2.90;;;;;;;26.00;80.62;101063.32;107575;1248;61273;-69
2023/09/03 14:17:30;;;;;;;4.40;3.00;;;;;;;25.85;81.30;101058.51;107595;1241;61461;-69
2023/09/03 14:20:03;;;;;;;5.00;3.00;;;;;;;25.72;82.08;101054.83;107562;1241;64583;-69
2023/09/03 14:22:32;;;;;;;3.90;2.90;;;;;;;25.61;83.38;101051.58;107612;1242;57444;-70
2023/09/03 14:25:04;;;;;;;5.50;3.50;;;;;;;25.51;84.25;101053.52;107653;1242;58941;-70
2023/09/03 14:27:33;;;;;;;5.50;3.50;;;;;;;25.42;84.75;101053.58;107527;1241;74674;-71
2023/09/03 14:30:03;;;;;;;4.60;3.20;;;;;;;25.32;85.58;101057.94;107581;1240;62940;-71
2023/09/03 14:32:37;;;;;;;3.70;2.70;;;;;;;25.30;84.80;101058.89;107613;1242;60365;-69
2023/09/03 14:35:09;;;;;;;3.50;2.40;;;;;;;25.19;85.45;101056.61;107599;1242;73772;-70
2023/09/03 14:37:38;;;;;;;4.20;2.60;;;;;;;25.13;85.43;101062.17;107596;1242;58978;-69
2023/09/03 14:40:08;;;;;;;5.30;2.60;;;;;;;25.03;85.94;101073.03;107669;1242;59048;-69
2023/09/03 14:42:37;;;;;;;3.20;2.30;;;;;;;24.90;86.07;101070.64;107595;1243;72684;-68
2023/09/03 14:45:09;;;;;;;5.00;2.70;;;;;;;24.87;86.82;101076.41;107625;1252;61595;-68
2023/09/03 14:47:39;;;;;;;5.60;3.20;;;;;;;24.76;87.36;101076.88;107508;1240;70744;-69
2023/09/03 14:50:10;;;;;;;4.50;2.70;;;;;;;24.64;89.15;101078.44;107569;1242;73940;-70
2023/09/03 14:52:39;;;;;;;3.50;2.50;;;;;;;24.53;90.40;101086.36;107468;1242;61385;-69
2023/09/03 14:55:08;;;;;;;5.30;2.90;;;;;;;24.38;91.84;101088.23;109577;1239;60884;-69
2023/09/03 14:57:37;;;;;;;4.50;2.90;;;;;;;24.17;92.92;101086.71;107555;1243;73649;-68
2023/09/03 15:00:07;;;;;;;8.70;2.90;;;;;;;23.86;98.45;101093.01;107663;1241;72189;-68
2023/09/03 15:02:36;;;;;;;5.90;3.60;;;;;;;23.46;100.00;101095.63;107641;1242;61436;-70
2023/09/03 15:05:06;;;;;;;4.80;3.60;;;;;;;22.85;100.00;101100.92;107624;1241;74049;-70
2023/09/03 15:07:35;;;;;;;6.30;3.60;;;;;;;22.26;100.00;101106.14;107563;1242;58927;-68
2023/09/03 15:10:08;;;;;;;5.20;3.50;;;;;;;21.85;100.00;101119.02;107525;1241;59214;-69
2023/09/03 15:12:39;;;;;;;6.40;3.90;;;;;;;21.39;100.00;101129.41;107438;1252;72272;-68
2023/09/03 15:15:09;;;;;;;4.70;4.10;;;;;;;20.99;100.00;101132.49;107349;1242;71774;-67
2023/09/03 15:17:38;;;;;;;6.10;4.30;;;;;;;20.74;100.00;101139.56;107453;1248;60726;-68
2023/09/03 15:20:11;;;;;;;13.30;4.70;;;;;;;20.52;100.00;101143.64;107363;1252;63107;-70
2023/09/03 15:22:43;;;;;;;18.50;11.20;;;;;;;20.38;100.00;101145.29;107229;1243;59043;-69
2023/09/03 15:25:12;;;;;;;8.20;4.70;;;;;;;20.20;100.00;101153.05;107321;1252;61036;-67
2023/09/03 15:27:42;;;;;;;6.80;5.20;;;;;;;20.10;100.00;101166.13;107185;1246;73664;-68
2023/09/03 15:30:11;;;;;;;8.90;6.30;;;;;;;20.02;100.00;101171.46;107108;1242;71602;-68
2023/09/03 15:32:40;;;;;;;8.70;6.20;;;;;;;20.00;100.00;101175.88;107296;1253;70075;-68
2023/09/03 15:35:09;;;;;;;9.10;6.10;;;;;;;19.91;100.00;101181.69;107335;1242;65150;-68
2023/09/03 15:37:38;;;;;;;10.90;6.40;;;;;;;19.80;100.00;101184.65;107327;1249;63000;-68
2023/09/03 15:40:14;;;;;;;9.90;6.50;;;;;;;19.69;100.00;101181.85;107434;1241;61284;-72
2023/09/03 15:42:43;;;;;;;9.10;5.80;;;;;;;19.58;100.00;101182.36;107484;1241;62189;-68
2023/09/03 15:45:12;;;;;;;13.10;7.30;;;;;;;19.48;100.00;101181.09;107437;1242;70475;-85
2023/09/03 15:47:41;;;;;;;11.50;7.30;;;;;;;19.27;100.00;101168.73;107416;1239;70706;-76
2023/09/03 15:50:09;;;;;;;11.30;8.10;;;;;;;19.19;100.00;101160.35;107419;1242;72261;-76
2023/09/03 15:52:38;;;;;;;11.50;7.90;;;;;;;19.10;100.00;101153.50;107424;1244;59142;-75
2023/09/03 15:55:07;;;;;;;12.30;9.10;;;;;;;19.02;100.00;101147.27;107596;1245;59092;-74
2023/09/03 15:57:37;;;;;;;15.30;10.40;;;;;;;19.05;100.00;101143.48;107385;1245;62057;-75
2023/09/03 16:00:08;;;;;;;16.70;10.10;;;;;;;19.25;100.00;101139.63;107538;1242;61598;-74
2023/09/03 16:02:41;;;;;;;12.90;9.10;;;;;;;19.28;100.00;101137.60;107502;1243;60926;-73
2023/09/03 16:05:11;;;;;;;12.10;8.00;;;;;;;19.21;100.00;101136.56;107392;1241;74749;-74
2023/09/03 16:07:40;;;;;;;12.10;8.30;;;;;;;19.20;100.00;101133.95;107389;1241;62352;-73
2023/09/03 16:10:10;;;;;;;10.50;7.90;;;;;;;19.17;100.00;101129.13;107596;1245;59198;-74
2023/09/03 16:12:38;;;;;;;8.40;7.60;;;;;;;19.10;100.00;101127.48;107709;1242;73120;-76
2023/09/03 16:15:09;;;;;;;9.90;7.40;;;;;;;19.08;100.00;101120.36;107639;1242;61599;-73
2023/09/03 16:17:38;;;;;;;12.10;8.30;;;;;;;19.08;100.00;101113.19;107480;1252;69247;-74
2023/09/03 16:20:07;;;;;;;9.00;7.40;;;;;;;19.14;100.00;101116.79;107638;1242;73612;-73
2023/09/03 16:22:36;;;;;;;11.90;8.40;;;;;;;19.16;100.00;101114.63;107663;1248;58924;-74
2023/09/03 16:25:06;;;;;;;11.90;8.40;;;;;;;19.05;100.00;101106.55;107601;1252;60437;-74
2023/09/03 16:27:35;;;;;;;10.80;7.90;;;;;;;19.13;100.00;101105.00;107723;1246;72555;-78
2023/09/03 16:30:04;;;;;;;10.60;9.00;;;;;;;19.21;100.00;101104.36;107614;1241;72954;-74
2023/09/03 16:32:34;;;;;;;9.60;8.40;;;;;;;19.19;100.00;101101.07;107653;1241;70877;-76
2023/09/03 16:35:04;;;;;;;11.00;9.40;;;;;;;19.26;100.00;101098.52;107611;1241;72300;-73
2023/09/03 16:37:33;;;;;;;13.40;10.50;;;;;;;19.34;100.00;101100.23;107570;1242;59034;-74
2023/09/03 16:40:04;;;;;;;14.80;9.50;;;;;;;19.38;100.00;101107.42;107618;1249;60115;-74
2023/09/03 16:42:33;;;;;;;15.20;9.80;;;;;;;19.40;100.00;101115.00;107665;1242;74723;-74
2023/09/03 16:45:02;;;;;;;10.60;8.00;;;;;;;19.43;100.00;101122.45;107589;1241;62047;-73
2023/09/03 16:47:31;;;;;;;10.00;8.30;;;;;;;19.37;100.00;101137.42;107602;1241;59241;-74
2023/09/03 16:50:00;;;;;;;10.30;7.90;;;;;;;19.36;100.00;101149.10;107642;1242;63084;-75
2023/09/03 16:52:33;;;;;;;12.60;7.60;;;;;;;19.34;100.00;101155.80;107752;1240;57421;-75
2023/09/03 16:55:06;;;;;;;9.30;7.60;;;;;;;19.17;100.00;101172.05;107601;1248;60363;-75
2023/09/03 16:57:36;;;;;;;12.30;8.60;;;;;;;19.07;100.00;101185.45;107624;1242;74158;-74
2023/09/03 17:00:08;;;;;;;10.80;7.60;;;;;;;19.06;100.00;101208.83;107583;1244;62769;-74
2023/09/03 17:02:40;;;;;;;11.00;7.90;;;;;;;18.96;100.00;101206.89;107614;1241;70472;-74
2023/09/03 17:05:09;;;;;;;9.00;6.50;;;;;;;18.75;100.00;101214.41;107509;1245;62770;-74
2023/09/03 17:07:38;;;;;;;9.50;6.20;;;;;;;18.52;100.00;101214.14;107341;1245;58978;-74
2023/09/03 17:10:08;;;;;;;8.00;5.90;;;;;;;18.31;100.00;101213.26;107359;1244;59408;-76
2023/09/03 17:12:37;;;;;;;6.30;5.40;;;;;;;18.13;100.00;101211.26;107519;1249;62723;-74
2023/09/03 17:15:07;;;;;;;5.00;4.30;;;;;;;17.99;100.00;101209.48;107530;1248;61496;-76
2023/09/03 17:17:37;;;;;;;4.20;2.60;;;;;;;17.86;100.00;101208.94;107562;1247;59865;-73
2023/09/03 17:20:13;;;;;;;5.70;2.10;;;;;;;17.61;100.00;101208.52;107672;1241;63904;-75
2023/09/03 17:22:43;;;;;;;3.30;1.70;;;;;;;17.33;100.00;101205.27;107637;1242;61993;-77
2023/09/03 17:25:12;;;;;;;2.30;1.40;;;;;;;17.18;100.00;101206.01;107603;1240;57554;-77
2023/09/03 17:27:41;;;;;;;2.00;1.50;;;;;;;16.99;100.00;101208.11;107567;1242;72061;-73
2023/09/03 17:30:10;;;;;;;2.70;1.70;;;;;;;16.87;100.00;101206.56;107646;1242;72765;-74
2023/09/03 17:32:39;;;;;;;3.70;2.00;;;;;;;16.98;100.00;101205.86;107680;1242;60283;-74
2023/09/03 17:35:12;;;;;;;3.30;2.30;;;;;;;16.97;100.00;101202.99;107641;1242;73287;-71
2023/09/03 17:37:41;;;;;;;2.40;1.80;;;;;;;16.98;100.00;101199.73;107505;1241;63897;-73
2023/09/03 17:40:11;;;;;;;2.80;1.70;;;;;;;16.97;100.00;101193.45;107453;1245;61758;-70
2023/09/03 17:42:39;;;;;;;2.70;1.60;;;;;;;16.96;100.00;101183.89;107580;1242;74294;-70
2023/09/03 17:45:09;;;;;;;3.60;1.70;;;;;;;16.92;100.00;101182.64;107382;1241;71910;-72
2023/09/03 17:47:38;;;;;;;2.90;1.80;;;;;;;16.92;100.00;101178.09;107371;1245;70024;-72
2023/09/03 17:50:07;;;;;;;4.40;1.90;;;;;;;16.99;100.00;101168.14;107515;1248;74300;-72
2023/09/03 17:52:36;;;;;;;3.90;1.60;;;;;;;16.96;100.00;101163.77;107436;1248;62396;-71
2023/09/03 17:55:06;;;;;;;2.90;1.30;;;;;;;17.06;100.00;101156.94;107293;1245;61509;-72
2023/09/03 17:57:35;;;;;;;5.10;1.70;;;;;;;16.98;100.00;101159.77;107549;1252;73147;-73
2023/09/03 18:00:05;;;;;;;2.50;1.60;;;;;;;16.94;100.00;101156.28;107485;1242;61385;-72
2023/09/03 18:02:40;;;;;;;3.50;1.50;;;;;;;16.93;100.00;101154.81;107544;1248;71385;-70
2023/09/03 18:05:16;;;;;;;7.50;3.70;;;;;;;16.98;100.00;101156.28;107497;1241;74057;-73
2023/09/03 18:07:45;;;;;;;3.30;1.80;;;;;;;17.16;100.00;101163.61;107477;1249;62530;-71
2023/09/03 18:10:13;;;;;;;3.90;2.00;;;;;;;17.08;100.00;101166.57;107348;1245;59713;-74
2023/09/03 18:12:42;;;;;;;2.90;1.60;;;;;;;17.11;100.00;101172.29;107398;1240;63944;-71
2023/09/03 18:15:11;;;;;;;3.50;1.40;;;;;;;17.08;100.00;101177.48;107340;1242;61858;-71
2023/09/03 18:17:41;;;;;;;3.10;1.60;;;;;;;17.08;100.00;101187.40;107484;1242;69682;-71
2023/09/03 18:20:10;;;;;;;3.40;1.70;;;;;;;17.05;100.00;101190.33;107378;1242;73174;-73
2023/09/03 18:22:39;;;;;;;3.40;1.90;;;;;;;17.06;100.00;101185.29;107365;1252;63129;-75
2023/09/03 18:25:09;;;;;;;4.60;2.10;;;;;;;16.99;100.00;101173.11;107315;1252;60594;-74
2023/09/03 18:27:41;;;;;;;4.90;2.70;;;;;;;16.99;100.00;101177.10;107200;1245;62441;-75
2023/09/03 18:30:10;;;;;;;4.00;2.10;;;;;;;16.93;100.00;101176.98;107360;1239;61411;-75
2023/09/03 18:32:42;;;;;;;2.90;2.10;;;;;;;16.91;100.00;101175.92;107499;1247;69425;-74
2023/09/03 18:35:11;;;;;;;3.50;2.00;;;;;;;16.81;100.00;101175.56;107414;1241;74351;-75
2023/09/03 18:37:43;;;;;;;3.00;1.80;;;;;;;16.76;100.00;101168.85;107404;1245;62445;-76
2023/09/03 18:40:12;;;;;;;3.90;1.80;;;;;;;16.78;100.00;101175.38;107449;1242;60105;-76
2023/09/03 18:42:41;;;;;;;3.20;2.00;;;;;;;16.73;100.00;101177.73;107563;1242;75242;-76
2023/09/03 18:45:09;;;;;;;3.00;2.00;;;;;;;16.78;100.00;101183.63;107535;1241;72439;-77
2023/09/03 18:47:38;;;;;;;5.00;2.20;;;;;;;16.74;100.00;101187.84;107460;1244;60930;-76
2023/09/03 18:50:07;;;;;;;2.70;1.80;;;;;;;16.72;100.00;101189.45;107368;1252;62491;-75
2023/09/03 18:52:36;;;;;;;2.60;1.80;;;;;;;16.70;100.00;101191.33;107369;1242;61814;-75
2023/09/03 18:55:05;;;;;;;3.30;1.70;;;;;;;16.71;100.00;101193.77;107389;1248;59131;-75
2023/09/03 18:57:34;;;;;;;4.40;2.00;;;;;;;16.72;100.00;101196.47;107339;1242;61956;-77
2023/09/03 19:00:07;;;;;;;3.50;2.10;;;;;;;16.69;100.00;101194.37;107408;1242;61822;-75
2023/09/03 19:02:36;;;;;;;3.70;2.30;;;;;;;16.69;100.00;101196.19;107541;1242;60793;-76
2023/09/03 19:05:05;;;;;;;3.40;2.30;;;;;;;16.72;100.00;101199.82;107500;1242;63191;-76
2023/09/03 19:07:34;;;;;;;3.30;2.20;;;;;;;16.73;100.00;101197.27;107515;1242;59057;-76
2023/09/03 19:10:03;;;;;;;4.70;2.20;;;;;;;16.72;100.00;101196.84;107409;1242;58573;-76
2023/09/03 19:12:35;;;;;;;3.90;2.50;;;;;;;16.75;100.00;101201.98;107437;1241;72481;-75
2023/09/03 19:15:07;;;;;;;3.70;2.40;;;;;;;16.76;100.00;101201.95;107235;1245;61501;-74
2023/09/03 19:17:39;;;;;;;4.70;2.60;;;;;;;16.76;100.00;101198.77;107377;1248;59047;-79
2023/09/03 19:20:08;;;;;;;6.40;3.20;;;;;;;16.79;100.00;101201.65;107306;1240;63150;-77
2023/09/03 19:22:37;;;;;;;4.10;2.50;;;;;;;16.84;100.00;101205.06;107330;1253;59033;-76
2023/09/03 19:25:07;;;;;;;4.60;2.80;;;;;;;16.84;100.00;101205.01;107450;1244;58995;-77
2023/09/03 19:27:42;;;;;;;3.90;2.80;;;;;;;16.84;100.00;101209.28;107394;1246;62780;-76
2023/09/03 19:30:20;;;;;;;3.80;2.80;;;;;;;16.87;100.00;101208.15;107294;1252;72156;-75
2023/09/03 19:32:50;;;;;;;3.70;2.60;;;;;;;16.86;100.00;101205.59;107364;1246;69213;-72
2023/09/03 19:35:20;;;;;;;4.20;2.70;;;;;;;16.88;100.00;101200.06;107438;1242;73056;-73
2023/09/03 19:37:49;;;;;;;4.00;2.70;;;;;;;16.81;100.00;101199.70;107411;1252;61947;-73
2023/09/03 19:40:20;;;;;;;4.30;3.00;;;;;;;16.80;100.00;101194.48;107281;1245;62776;-72
2023/09/03 19:42:49;;;;;;;5.40;3.10;;;;;;;16.80;100.00;101191.68;107494;1242;62652;-73
2023/09/03 19:45:21;;;;;;;6.40;3.30;;;;;;;16.79;100.00;101190.20;107528;1252;72243;-73